createdAt,value
2017-04-29T00:02:22.003Z,55.60
2017-04-29T00:04:51.087Z,56.30
2017-04-29T00:07:20.185Z,55.40
2017-04-29T00:09:49.286Z,55.70
2017-04-29T00:12:18.346Z,55.60
2017-04-29T00:14:47.435Z,56.20
2017-04-29T00:17:16.507Z,55.40
2017-04-29T00:19:45.592Z,56.00
2017-04-29T00:22:14.648Z,55.20
2017-04-29T00:24:43.740Z,55.20
2017-04-29T00:27:12.815Z,55.50
2017-04-29T00:29:42.639Z,55.70
2017-04-29T00:32:11.761Z,56.00
2017-04-29T00:34:40.805Z,56.10
2017-04-29T00:37:09.872Z,56.40
2017-04-29T00:39:38.926Z,56.70
2017-04-29T00:42:08.022Z,57.80
2017-04-29T00:44:37.085Z,57.80
2017-04-29T00:47:06.222Z,57.90
2017-04-29T00:49:35.273Z,58.40
2017-04-29T00:52:04.353Z,59.00
2017-04-29T00:54:33.442Z,59.40
2017-04-29T00:57:02.515Z,59.70
2017-04-29T00:59:31.561Z,60.20
2017-04-29T01:02:00.634Z,60.80
2017-04-29T01:04:29.686Z,61.30
2017-04-29T01:06:58.784Z,62.10
2017-04-29T01:09:27.893Z,62.00
2017-04-29T01:11:57.003Z,63.10
2017-04-29T01:14:26.051Z,62.90
2017-04-29T01:16:55.888Z,63.30
2017-04-29T01:19:24.967Z,63.60
2017-04-29T01:21:54.019Z,63.90
2017-04-29T01:24:23.107Z,64.40
2017-04-29T01:26:52.375Z,64.90
2017-04-29T01:29:22.203Z,66.70
2017-04-29T01:31:52.232Z,66.40
2017-04-29T01:34:21.311Z,67.80
2017-04-29T01:36:50.386Z,68.60
2017-04-29T01:39:20.439Z,69.90
2017-04-29T01:41:49.494Z,71.20
2017-04-29T01:44:19.340Z,73.00
2017-04-29T01:46:48.383Z,75.00
2017-04-29T01:49:17.471Z,76.50
2017-04-29T01:51:46.543Z,77.70
2017-04-29T01:54:15.583Z,78.80
2017-04-29T01:56:45.416Z,79.60
2017-04-29T01:59:15.199Z,80.70
2017-04-29T02:01:44.295Z,82.40
2017-04-29T02:04:14.097Z,82.20
2017-04-29T02:06:43.192Z,84.10
2017-04-29T02:09:12.285Z,84.40
2017-04-29T02:11:41.347Z,84.40
2017-04-29T02:14:10.439Z,84.90
2017-04-29T02:16:39.487Z,84.30
2017-04-29T02:19:09.315Z,84.60
2017-04-29T02:21:39.112Z,85.00
2017-04-29T02:24:08.959Z,84.90
2017-04-29T02:26:38.056Z,85.40
2017-04-29T02:29:07.112Z,85.10
2017-04-29T02:31:36.179Z,86.40
2017-04-29T02:34:05.274Z,86.40
2017-04-29T02:36:34.385Z,86.70
2017-04-29T02:39:03.486Z,86.70
2017-04-29T02:41:32.552Z,86.30
2017-04-29T02:44:01.656Z,87.60
2017-04-29T02:46:30.739Z,87.10
2017-04-29T02:48:59.784Z,86.70
2017-04-29T02:51:28.856Z,86.80
2017-04-29T02:53:57.915Z,86.10
2017-04-29T02:56:27.015Z,85.50
2017-04-29T02:58:56.081Z,85.60
2017-04-29T03:01:25.112Z,85.10
2017-04-29T03:03:54.201Z,85.20
2017-04-29T03:06:23.244Z,86.10
2017-04-29T03:08:52.596Z,84.80
2017-04-29T03:11:21.897Z,85.40
2017-04-29T03:13:50.988Z,85.40
2017-04-29T03:16:20.029Z,85.50
2017-04-29T03:18:49.115Z,85.20
2017-04-29T03:21:18.409Z,85.60
2017-04-29T03:23:47.439Z,86.20
2017-04-29T03:26:16.512Z,86.10
2017-04-29T03:28:45.552Z,85.70
2017-04-29T03:31:15.367Z,86.80
2017-04-29T03:33:44.436Z,86.70
2017-04-29T03:36:13.495Z,86.50
2017-04-29T03:38:42.875Z,87.10
2017-04-29T03:41:11.950Z,86.90
2017-04-29T03:43:41.740Z,86.50
2017-04-29T03:46:10.819Z,86.00
2017-04-29T03:48:39.847Z,87.10
2017-04-29T03:51:09.994Z,86.80
2017-04-29T03:53:39.061Z,85.00
2017-04-29T03:56:08.154Z,85.60
2017-04-29T03:58:37.229Z,85.90
2017-04-29T04:01:06.296Z,84.90
2017-04-29T04:03:35.405Z,85.50
2017-04-29T04:06:04.438Z,85.30
2017-04-29T04:08:33.872Z,86.10
2017-04-29T04:11:02.930Z,85.70
2017-04-29T04:13:31.985Z,85.70
2017-04-29T04:16:01.077Z,86.50
2017-04-29T04:18:30.143Z,87.10
2017-04-29T04:20:59.947Z,86.10
2017-04-29T04:23:29.764Z,86.90
2017-04-29T04:25:59.652Z,87.70
2017-04-29T04:28:29.452Z,88.00
2017-04-29T04:30:58.519Z,88.00
2017-04-29T04:33:27.572Z,87.20
2017-04-29T04:35:57.408Z,88.70
2017-04-29T04:38:26.455Z,88.20
2017-04-29T04:40:55.529Z,89.40
2017-04-29T04:43:24.576Z,89.20
2017-04-29T04:45:53.732Z,89.20
2017-04-29T04:48:22.786Z,88.00
2017-04-29T04:50:51.863Z,88.70
2017-04-29T04:53:21.682Z,89.20
2017-04-29T04:55:51.492Z,89.60
2017-04-29T04:58:21.630Z,89.00
2017-04-29T05:00:50.711Z,89.10
2017-04-29T05:03:20.544Z,89.50
2017-04-29T05:05:49.600Z,89.10
2017-04-29T05:08:18.663Z,88.70
2017-04-29T05:10:47.739Z,89.00
2017-04-29T05:13:16.780Z,89.10
2017-04-29T05:15:45.849Z,88.80
2017-04-29T05:18:14.882Z,88.60
2017-04-29T05:20:43.943Z,88.50
2017-04-29T05:23:13.217Z,88.20
2017-04-29T05:25:42.289Z,87.90
2017-04-29T05:28:12.059Z,87.60
2017-04-29T05:30:41.127Z,87.10
2017-04-29T05:33:10.187Z,87.30
2017-04-29T05:35:40.011Z,85.90
2017-04-29T05:38:09.797Z,85.40
2017-04-29T05:40:39.630Z,85.80
2017-04-29T05:43:09.415Z,84.80
2017-04-29T05:45:38.512Z,83.80
2017-04-29T05:48:07.549Z,84.60
2017-04-29T05:50:36.616Z,83.30
2017-04-29T05:53:05.688Z,83.90
2017-04-29T05:55:34.732Z,84.00
2017-04-29T05:58:03.833Z,85.00
2017-04-29T06:00:32.902Z,84.30
2017-04-29T06:03:02.333Z,84.20
2017-04-29T06:05:31.411Z,84.70
2017-04-29T06:08:01.191Z,83.80
2017-04-29T06:10:30.270Z,84.60
2017-04-29T06:12:59.321Z,84.20
2017-04-29T06:15:28.395Z,85.20
2017-04-29T06:17:57.468Z,83.70
2017-04-29T06:20:26.819Z,83.70
2017-04-29T06:22:55.871Z,83.30
2017-04-29T06:25:25.718Z,83.80
2017-04-29T06:27:54.768Z,84.10
2017-04-29T06:30:24.126Z,82.60
2017-04-29T06:32:53.246Z,81.60
2017-04-29T06:35:22.623Z,81.10
2017-04-29T06:37:51.719Z,80.90
2017-04-29T06:40:20.763Z,81.30
2017-04-29T06:42:49.832Z,81.10
2017-04-29T06:45:18.872Z,79.30
2017-04-29T06:47:47.931Z,78.60
2017-04-29T06:50:16.970Z,77.20
2017-04-29T06:52:46.301Z,77.20
2017-04-29T06:55:15.404Z,77.20
2017-04-29T06:57:44.495Z,75.50
2017-04-29T07:00:13.586Z,76.00
2017-04-29T07:02:42.998Z,76.30
2017-04-29T07:05:12.396Z,75.10
2017-04-29T07:07:41.452Z,73.50
2017-04-29T07:10:10.515Z,72.70
2017-04-29T07:12:40.423Z,70.70
2017-04-29T07:15:09.798Z,72.20
2017-04-29T07:17:38.957Z,70.50
2017-04-29T07:20:08.764Z,69.30
2017-04-29T07:22:38.611Z,69.50
2017-04-29T07:25:08.027Z,67.90
2017-04-29T07:27:37.083Z,67.60
2017-04-29T07:30:06.428Z,67.50
2017-04-29T07:32:35.474Z,66.40
2017-04-29T07:35:04.542Z,64.10
2017-04-29T07:37:33.920Z,64.50
2017-04-29T07:40:03.007Z,63.10
2017-04-29T07:42:32.824Z,62.10
2017-04-29T07:45:01.860Z,62.50
2017-04-29T07:47:30.946Z,62.50
2017-04-29T07:50:00.014Z,62.30
2017-04-29T07:52:29.044Z,57.30
2017-04-29T07:54:58.100Z,58.30
2017-04-29T07:57:27.161Z,59.10
2017-04-29T07:59:56.505Z,59.30
2017-04-29T08:02:26.318Z,54.90
2017-04-29T08:04:55.400Z,54.70
2017-04-29T08:07:25.204Z,53.80
2017-04-29T08:09:54.239Z,54.10
2017-04-29T08:12:23.321Z,50.40
2017-04-29T08:14:52.387Z,53.30
2017-04-29T08:17:21.808Z,53.00
2017-04-29T08:19:50.885Z,53.60
2017-04-29T08:22:19.917Z,54.90
2017-04-29T08:24:49.002Z,55.20
2017-04-29T08:27:18.046Z,54.40
2017-04-29T08:29:47.184Z,57.00
2017-04-29T08:32:16.290Z,58.00
2017-04-29T08:34:45.343Z,59.70
2017-04-29T08:37:14.409Z,58.80
2017-04-29T08:39:43.487Z,58.10
2017-04-29T08:42:12.551Z,60.00
2017-04-29T08:44:41.619Z,59.10
2017-04-29T08:47:10.677Z,57.60
2017-04-29T08:49:39.728Z,57.10
2017-04-29T08:52:08.755Z,56.50
2017-04-29T08:54:37.818Z,56.60
2017-04-29T08:57:06.886Z,55.40
2017-04-29T08:59:35.951Z,55.20
2017-04-29T09:02:05.023Z,52.80
2017-04-29T09:04:34.827Z,52.00
2017-04-29T09:07:04.636Z,49.00
2017-04-29T09:09:33.703Z,49.60
2017-04-29T09:12:02.752Z,49.80
2017-04-29T09:14:31.837Z,50.90
2017-04-29T09:17:01.608Z,49.40
2017-04-29T09:19:30.683Z,50.10
2017-04-29T09:21:59.742Z,50.30
2017-04-29T09:24:29.147Z,48.60
2017-04-29T09:26:58.230Z,49.80
2017-04-29T09:29:28.060Z,49.20
2017-04-29T09:31:57.097Z,50.00
2017-04-29T09:34:26.464Z,49.80
2017-04-29T09:36:55.495Z,49.90
2017-04-29T09:39:24.579Z,49.30
2017-04-29T09:41:53.661Z,48.80
2017-04-29T09:44:22.921Z,47.90
2017-04-29T09:46:52.761Z,48.00
2017-04-29T09:49:21.807Z,48.50
2017-04-29T09:51:51.153Z,47.50
2017-04-29T09:54:20.206Z,48.30
2017-04-29T09:56:49.267Z,49.20
2017-04-29T09:59:18.354Z,48.00
2017-04-29T10:01:47.428Z,48.20
2017-04-29T10:04:17.277Z,48.70
2017-04-29T10:06:46.352Z,48.70
2017-04-29T10:09:15.643Z,48.70
2017-04-29T10:11:44.723Z,49.30
2017-04-29T10:14:14.487Z,48.60
2017-04-29T10:16:43.563Z,48.60
2017-04-29T10:19:12.631Z,46.50
2017-04-29T10:21:41.712Z,48.20
2017-04-29T10:24:11.502Z,46.70
2017-04-29T10:26:40.592Z,45.90
2017-04-29T10:29:09.658Z,46.70
2017-04-29T10:31:38.732Z,46.40
2017-04-29T10:34:08.872Z,46.50
2017-04-29T10:36:38.072Z,46.90
2017-04-29T10:39:07.170Z,45.90
2017-04-29T10:41:36.439Z,46.10
2017-04-29T10:44:05.712Z,47.10
2017-04-29T10:46:34.739Z,44.80
2017-04-29T10:49:04.564Z,45.90
2017-04-29T10:51:33.604Z,45.50
2017-04-29T10:54:02.699Z,46.40
2017-04-29T10:56:31.936Z,45.80
2017-04-29T10:59:00.972Z,48.30
2017-04-29T11:01:30.044Z,45.90
2017-04-29T11:03:59.807Z,45.20
2017-04-29T11:06:28.871Z,46.80
2017-04-29T11:08:58.147Z,46.60
2017-04-29T11:11:27.934Z,45.60
2017-04-29T11:13:56.960Z,46.40
2017-04-29T11:16:26.091Z,44.60
2017-04-29T11:18:55.136Z,44.30
2017-04-29T11:21:24.955Z,44.40
2017-04-29T11:23:54.012Z,43.00
2017-04-29T11:26:23.082Z,42.40
2017-04-29T11:28:52.135Z,43.70
2017-04-29T11:31:21.948Z,41.20
2017-04-29T11:33:52.081Z,42.50
2017-04-29T11:36:21.126Z,39.40
2017-04-29T11:38:50.224Z,39.10
2017-04-29T11:41:19.252Z,40.50
2017-04-29T11:43:49.073Z,41.40
2017-04-29T11:46:18.115Z,41.20
2017-04-29T11:48:47.193Z,40.60
2017-04-29T11:51:16.249Z,41.70
2017-04-29T11:53:46.072Z,40.20
2017-04-29T11:56:15.150Z,42.50
2017-04-29T11:58:44.974Z,43.20
2017-04-29T12:01:14.044Z,43.30
2017-04-29T12:03:43.112Z,44.10
2017-04-29T12:06:12.140Z,44.60
2017-04-29T12:08:41.212Z,44.60
2017-04-29T12:11:10.259Z,45.00
2017-04-29T12:13:39.351Z,44.90
2017-04-29T12:16:08.660Z,44.60
2017-04-29T12:18:37.719Z,43.90
2017-04-29T12:21:06.750Z,45.50
2017-04-29T12:23:35.835Z,43.30
2017-04-29T12:26:05.616Z,42.50
2017-04-29T12:28:34.709Z,42.70
2017-04-29T12:31:03.759Z,44.30
2017-04-29T12:33:32.812Z,44.20
2017-04-29T12:36:01.887Z,42.60
2017-04-29T12:38:30.929Z,44.30
2017-04-29T12:41:00.024Z,41.60
2017-04-29T12:43:29.068Z,44.20
2017-04-29T12:45:58.133Z,43.70
2017-04-29T12:48:27.182Z,44.10
2017-04-29T12:50:56.523Z,44.10
2017-04-29T12:53:25.653Z,44.60
2017-04-29T12:55:54.766Z,46.00
2017-04-29T12:58:23.796Z,45.70
2017-04-29T13:00:52.880Z,47.30
2017-04-29T13:03:21.953Z,45.40
2017-04-29T13:05:51.033Z,46.60
2017-04-29T13:08:20.096Z,45.50
2017-04-29T13:10:49.132Z,44.60
2017-04-29T13:13:18.192Z,43.00
2017-04-29T13:15:47.256Z,39.70
2017-04-29T13:18:17.103Z,38.00
2017-04-29T13:20:46.126Z,38.10
2017-04-29T13:23:15.200Z,38.50
2017-04-29T13:25:44.259Z,40.70
2017-04-29T13:28:14.068Z,41.50
2017-04-29T13:30:43.839Z,42.30
2017-04-29T13:33:12.921Z,42.70
2017-04-29T13:35:41.965Z,43.50
2017-04-29T13:38:11.788Z,43.60
2017-04-29T13:40:40.848Z,44.40
2017-04-29T13:43:09.932Z,44.10
2017-04-29T13:45:38.975Z,41.90
2017-04-29T13:48:08.795Z,42.20
2017-04-29T13:50:37.851Z,43.20
2017-04-29T13:53:06.964Z,39.70
2017-04-29T13:55:36.776Z,39.60
2017-04-29T13:58:06.596Z,41.00
2017-04-29T14:00:35.639Z,42.80
2017-04-29T14:03:04.750Z,43.20
2017-04-29T14:05:33.834Z,43.20
2017-04-29T14:08:02.906Z,44.00
2017-04-29T14:10:31.988Z,44.60
2017-04-29T14:13:01.770Z,46.30
2017-04-29T14:15:30.868Z,45.50
2017-04-29T14:17:59.927Z,44.80
2017-04-29T14:20:29.032Z,45.50
2017-04-29T14:22:58.062Z,45.80
2017-04-29T14:25:27.131Z,46.40
2017-04-29T14:27:56.220Z,47.30
2017-04-29T14:30:25.268Z,51.10
2017-04-29T14:32:54.365Z,55.10
2017-04-29T14:35:24.170Z,54.90
2017-04-29T14:37:53.205Z,56.50
2017-04-29T14:40:22.264Z,54.90
2017-04-29T14:42:52.053Z,54.60
2017-04-29T14:45:21.144Z,51.30
2017-04-29T14:47:50.492Z,48.20
2017-04-29T14:50:19.591Z,46.40
2017-04-29T14:52:48.890Z,44.50
2017-04-29T14:55:18.707Z,43.90
2017-04-29T14:57:48.002Z,42.50
2017-04-29T15:00:17.087Z,41.50
2017-04-29T15:02:46.149Z,39.80
2017-04-29T15:05:15.231Z,38.00
2017-04-29T15:07:44.291Z,36.80
2017-04-29T15:10:13.371Z,37.60
2017-04-29T15:12:42.451Z,38.30
2017-04-29T15:15:11.496Z,39.40
2017-04-29T15:17:40.596Z,40.70
2017-04-29T15:20:09.632Z,41.70
2017-04-29T15:22:38.720Z,38.20
2017-04-29T15:25:07.751Z,35.80
2017-04-29T15:27:36.837Z,36.20
2017-04-29T15:30:06.642Z,35.30
2017-04-29T15:32:35.702Z,37.90
2017-04-29T15:35:05.059Z,40.50
2017-04-29T15:37:34.116Z,40.00
2017-04-29T15:40:03.195Z,38.60
2017-04-29T15:42:32.299Z,36.80
2017-04-29T15:45:01.343Z,38.20
2017-04-29T15:47:30.402Z,42.30
2017-04-29T15:50:00.200Z,40.40
2017-04-29T15:52:29.289Z,37.80
2017-04-29T15:54:58.362Z,37.30
2017-04-29T15:57:27.436Z,37.70
2017-04-29T15:59:56.509Z,37.30
2017-04-29T16:02:25.556Z,35.60
2017-04-29T16:04:54.625Z,36.40
2017-04-29T16:07:23.927Z,37.20
2017-04-29T16:09:53.735Z,38.60
2017-04-29T16:12:22.771Z,38.80
2017-04-29T16:14:52.142Z,37.70
2017-04-29T16:17:21.209Z,40.10
2017-04-29T16:19:50.992Z,39.80
2017-04-29T16:22:20.063Z,37.60
2017-04-29T16:24:49.138Z,38.50
2017-04-29T16:27:18.213Z,41.40
2017-04-29T16:29:48.003Z,40.90
2017-04-29T16:32:17.080Z,42.00
2017-04-29T16:34:46.121Z,42.70
2017-04-29T16:37:16.527Z,42.40
2017-04-29T16:39:45.568Z,44.40
2017-04-29T16:42:14.956Z,44.50
2017-04-29T16:44:44.257Z,45.10
2017-04-29T16:47:13.349Z,45.70
2017-04-29T16:49:43.122Z,46.50
2017-04-29T16:52:12.181Z,49.20
2017-04-29T16:54:41.264Z,50.50
2017-04-29T16:57:10.291Z,51.30
2017-04-29T16:59:39.432Z,51.80
2017-04-29T17:02:09.208Z,46.60
2017-04-29T17:04:38.296Z,42.90
2017-04-29T17:07:07.344Z,36.80
2017-04-29T17:09:37.173Z,33.60
2017-04-29T17:12:06.239Z,33.80
2017-04-29T17:14:35.322Z,32.80
2017-04-29T17:17:04.359Z,32.60
2017-04-29T17:19:33.679Z,34.80
2017-04-29T17:22:03.056Z,35.40
2017-04-29T17:24:32.099Z,31.80
2017-04-29T17:27:01.185Z,29.90
2017-04-29T17:29:30.237Z,28.40
2017-04-29T17:32:00.056Z,27.70
2017-04-29T17:34:29.354Z,29.20
2017-04-29T17:36:58.436Z,27.50
2017-04-29T17:39:28.247Z,28.80
2017-04-29T17:41:58.084Z,28.50
2017-04-29T17:44:27.156Z,29.40
2017-04-29T17:46:56.926Z,29.10
2017-04-29T17:49:26.029Z,32.10
2017-04-29T17:51:56.265Z,36.50
2017-04-29T17:54:25.335Z,38.60
2017-04-29T17:56:54.367Z,41.80
2017-04-29T17:59:24.196Z,44.00
2017-04-29T18:01:53.982Z,44.80
2017-04-29T18:04:24.140Z,45.40
2017-04-29T18:06:53.205Z,46.70
2017-04-29T18:09:22.268Z,48.50
2017-04-29T18:11:51.355Z,51.30
2017-04-29T18:14:20.375Z,51.00
2017-04-29T18:16:49.478Z,51.80
2017-04-29T18:19:19.272Z,51.90
2017-04-29T18:21:48.358Z,52.10
2017-04-29T18:24:17.380Z,53.30
2017-04-29T18:26:46.455Z,53.00
2017-04-29T18:29:15.532Z,53.20
2017-04-29T18:31:44.911Z,53.70
2017-04-29T18:34:14.317Z,54.00
2017-04-29T18:36:44.093Z,54.40
2017-04-29T18:39:13.186Z,54.60
2017-04-29T18:41:42.220Z,54.70
2017-04-29T18:44:12.460Z,54.70
2017-04-29T18:46:42.852Z,55.20
2017-04-29T18:49:13.368Z,55.60
2017-04-29T18:51:49.965Z,56.20
2017-04-29T18:54:24.483Z,56.10
2017-04-29T18:56:55.851Z,56.70
2017-04-29T18:59:29.873Z,57.60
2017-04-29T19:02:02.855Z,57.90
2017-04-29T19:04:38.523Z,58.60
2017-04-29T19:07:09.222Z,58.80
2017-04-29T19:09:39.709Z,58.50
2017-04-29T19:12:09.764Z,59.10
2017-04-29T19:14:40.552Z,59.20
2017-04-29T19:17:10.510Z,59.70
2017-04-29T19:19:40.550Z,58.60
2017-04-29T19:22:11.234Z,59.60
2017-04-29T19:24:41.365Z,60.60
2017-04-29T19:27:11.408Z,60.50
2017-04-29T19:29:42.092Z,60.30
2017-04-29T19:32:12.113Z,59.50
2017-04-29T19:34:42.079Z,61.60
2017-04-29T19:37:12.866Z,62.70
2017-04-29T19:39:42.802Z,62.60
2017-04-29T19:42:12.833Z,61.40
2017-04-29T19:44:42.886Z,62.40
2017-04-29T19:47:12.978Z,62.60
2017-04-29T19:49:42.921Z,63.60
2017-04-29T19:52:13.399Z,63.90
2017-04-29T19:54:43.435Z,64.10
2017-04-29T19:57:13.385Z,64.50
2017-04-29T19:59:43.430Z,64.80
2017-04-29T20:02:13.978Z,65.40
2017-04-29T20:04:44.310Z,64.60
2017-04-29T20:07:14.372Z,64.20
2017-04-29T20:09:44.349Z,65.30
2017-04-29T20:12:14.835Z,63.30
2017-04-29T20:14:44.847Z,64.80
2017-04-29T20:17:14.938Z,65.90
2017-04-29T20:19:45.732Z,64.80
2017-04-29T20:22:15.020Z,66.10
2017-04-29T20:24:44.144Z,66.00
2017-04-29T20:27:13.990Z,65.20
2017-04-29T20:29:43.497Z,68.40
2017-04-29T20:32:12.535Z,68.40
2017-04-29T20:34:41.614Z,68.30
2017-04-29T20:37:10.675Z,67.00
2017-04-29T20:39:39.774Z,68.60
2017-04-29T20:42:08.835Z,67.80
2017-04-29T20:44:37.922Z,67.90
2017-04-29T20:47:07.275Z,67.40
2017-04-29T20:49:36.349Z,68.80
2017-04-29T20:52:06.160Z,70.40
2017-04-29T20:54:35.945Z,71.70
2017-04-29T20:57:05.298Z,71.80
2017-04-29T20:59:34.355Z,72.80
2017-04-29T21:02:04.744Z,72.50
2017-04-29T21:04:37.908Z,72.50
2017-04-29T21:07:09.374Z,73.90
2017-04-29T21:09:39.761Z,71.60
2017-04-29T21:12:10.657Z,71.90
2017-04-29T21:14:39.743Z,71.10
2017-04-29T21:17:08.804Z,70.10
2017-04-29T21:19:37.897Z,72.60
2017-04-29T21:22:07.676Z,72.60
2017-04-29T21:24:36.757Z,71.90
2017-04-29T21:27:05.866Z,72.10
2017-04-29T21:29:34.893Z,73.10
2017-04-29T21:32:04.015Z,72.90
2017-04-29T21:34:33.087Z,74.10
2017-04-29T21:37:02.410Z,72.30
2017-04-29T21:39:31.486Z,71.90
2017-04-29T21:42:01.301Z,71.40
2017-04-29T21:44:30.360Z,72.80
2017-04-29T21:46:59.434Z,73.90
2017-04-29T21:49:28.526Z,73.20
2017-04-29T21:51:57.553Z,71.50
2017-04-29T21:54:27.404Z,70.40
2017-04-29T21:56:56.451Z,72.20
2017-04-29T21:59:25.516Z,68.90
2017-04-29T22:01:54.553Z,71.70
2017-04-29T22:04:23.657Z,72.10
2017-04-29T22:06:52.778Z,72.90
2017-04-29T22:09:21.864Z,72.70
2017-04-29T22:11:51.659Z,73.00
2017-04-29T22:14:20.738Z,74.70
2017-04-29T22:16:49.832Z,73.20
2017-04-29T22:19:18.893Z,72.90
2017-04-29T22:21:48.019Z,73.00
2017-04-29T22:24:17.062Z,71.40
2017-04-29T22:26:46.892Z,73.20
2017-04-29T22:29:15.935Z,73.90
2017-04-29T22:31:44.996Z,68.80
2017-04-29T22:34:14.079Z,73.70
2017-04-29T22:36:43.163Z,72.20
2017-04-29T22:39:12.275Z,73.80
2017-04-29T22:41:41.327Z,75.40
2017-04-29T22:44:10.668Z,73.70
2017-04-29T22:46:39.719Z,73.30
2017-04-29T22:49:08.812Z,74.10
2017-04-29T22:51:37.888Z,73.10
2017-04-29T22:54:06.935Z,74.50
2017-04-29T22:56:36.027Z,72.80
2017-04-29T22:59:05.842Z,75.00
2017-04-29T23:01:35.642Z,75.70
2017-04-29T23:04:05.480Z,76.30
2017-04-29T23:06:34.592Z,74.60
2017-04-29T23:09:03.880Z,75.00
2017-04-29T23:11:32.950Z,74.00
2017-04-29T23:14:02.959Z,75.70
2017-04-29T23:16:32.824Z,76.50
2017-04-29T23:19:01.867Z,77.10
2017-04-29T23:21:31.711Z,76.30
2017-04-29T23:24:01.495Z,76.20
2017-04-29T23:26:30.567Z,73.80
2017-04-29T23:28:59.655Z,76.00
2017-04-29T23:31:28.695Z,76.10
2017-04-29T23:33:57.807Z,74.70
2017-04-29T23:36:26.878Z,75.80
2017-04-29T23:38:56.724Z,75.80
2017-04-29T23:41:25.827Z,74.30
2017-04-29T23:43:54.885Z,74.00
2017-04-29T23:46:24.730Z,74.80
2017-04-29T23:48:53.791Z,75.70
2017-04-29T23:51:23.626Z,73.80
2017-04-29T23:53:52.713Z,77.40
2017-04-29T23:56:21.770Z,78.30
2017-04-29T23:58:51.133Z,77.90
